| time (UTC) | temp F | wind direction | speed MPH | gust MPH | rain 1hr in | rain 24hr in | rain mn in | humidity % | barometer mb |
| 20260508211507 | 48 | 3 | 7.0 | 7.0 | 0.00 | 0.00 | 0.00 | 88 | 1020.9 |
| 20260508211009 | 48 | 3 | 8.0 | 8.0 | 0.00 | 0.00 | 0.00 | 87 | 1020.9 |
| 20260508210508 | 48 | 2 | 7.0 | 10.0 | 0.00 | 0.00 | 0.00 | 87 | 1021.0 |
| 20260508210007 | 48 | 17 | 9.0 | 10.0 | 0.00 | 0.00 | 0.00 | 87 | 1020.9 |
| 20260508205508 | 48 | 15 | 11.0 | 12.0 | 0.00 | 0.00 | 0.00 | 87 | 1020.7 |
| 20260508205007 | 48 | 9 | 9.0 | 10.0 | 0.00 | 0.00 | 0.00 | 87 | 1021.1 |
| 20260508204507 | 48 | 15 | 9.0 | 10.0 | 0.00 | 0.00 | 0.00 | 87 | 1021.0 |
| 20260508204007 | 48 | 17 | 7.0 | 8.0 | 0.00 | 0.00 | 0.00 | 86 | 1020.8 |
| 20260508203507 | 48 | 18 | 12.0 | 12.0 | 0.00 | 0.00 | 0.00 | 87 | 1020.9 |
| 20260508203007 | 48 | 36 | 8.0 | 9.0 | 0.00 | 0.00 | 0.00 | 86 | 1020.9 |
| 20260508202507 | 48 | 20 | 6.0 | 8.0 | 0.00 | 0.00 | 0.00 | 86 | 1020.8 |
| 20260508202008 | 48 | 23 | 8.0 | 8.0 | 0.00 | 0.00 | 0.00 | 86 | 1020.8 |
| 20260508201507 | 48 | 16 | 8.0 | 9.0 | 0.00 | 0.00 | 0.00 | 86 | 1020.7 |
| 20260508201007 | 49 | 17 | 9.0 | 11.0 | 0.00 | 0.00 | 0.00 | 85 | 1020.9 |
| 20260508200508 | 49 | 15 | 10.0 | 10.0 | 0.00 | 0.00 | 0.00 | 86 | 1020.9 |
| 20260508200007 | 49 | 17 | 8.0 | 8.0 | 0.00 | 0.00 | 0.00 | 85 | 1020.9 |
| 20260508195508 | 49 | 12 | 7.0 | 9.0 | 0.00 | 0.00 | 0.00 | 85 | 1020.8 |
| 20260508195008 | 49 | 10 | 7.0 | 8.0 | 0.00 | 0.00 | 0.00 | 85 | 1020.6 |
| 20260508194507 | 49 | 11 | 10.0 | 12.0 | 0.00 | 0.00 | 0.00 | 85 | 1020.5 |
| 20260508194008 | 49 | 11 | 5.0 | 6.0 | 0.00 | 0.00 | 0.00 | 85 | 1020.7 |
| 20260508193507 | 49 | 13 | 5.0 | 7.0 | 0.00 | 0.00 | 0.00 | 84 | 1020.4 |
| 20260508193008 | 49 | 6 | 7.0 | 8.0 | 0.00 | 0.00 | 0.00 | 84 | 1020.6 |
| 20260508192507 | 50 | 11 | 10.0 | 10.0 | 0.00 | 0.00 | 0.00 | 83 | 1020.3 |
| 20260508192007 | 50 | 8 | 12.0 | 13.0 | 0.00 | 0.00 | 0.00 | 83 | 1020.3 |
| 20260508191507 | 50 | 12 | 9.0 | 10.0 | 0.00 | 0.00 | 0.00 | 83 | 1020.5 |
| 20260508191006 | 50 | 10 | 5.0 | 12.0 | 0.00 | 0.00 | 0.00 | 82 | 1020.3 |
| 20260508190507 | 50 | 9 | 7.0 | 9.0 | 0.00 | 0.00 | 0.00 | 82 | 1020.4 |
| 20260508190008 | 51 | 1 | 10.0 | 10.0 | 0.00 | 0.00 | 0.00 | 81 | 1020.2 |
| 20260508185507 | 51 | 7 | 8.0 | 10.0 | 0.00 | 0.00 | 0.00 | 81 | 1020.2 |
| 20260508185007 | 51 | 355 | 11.0 | 13.0 | 0.00 | 0.00 | 0.00 | 80 | 1020.1 |
| 20260508184509 | 51 | 14 | 10.0 | 10.0 | 0.00 | 0.00 | 0.00 | 79 | 1020.0 |
| 20260508184009 | 52 | 12 | 6.0 | 11.0 | 0.00 | 0.00 | 0.00 | 79 | 1020.2 |
| 20260508183507 | 52 | 9 | 8.0 | 11.0 | 0.00 | 0.00 | 0.00 | 78 | 1019.9 |
| 20260508183009 | 52 | 9 | 7.0 | 12.0 | 0.00 | 0.00 | 0.00 | 78 | 1020.0 |
| 20260508182506 | 52 | 4 | 9.0 | 12.0 | 0.00 | 0.00 | 0.00 | 78 | 1019.7 |
| 20260508182007 | 52 | 12 | 8.0 | 10.0 | 0.00 | 0.00 | 0.00 | 77 | 1020.0 |
| 20260508181507 | 52 | 11 | 11.0 | 13.0 | 0.00 | 0.00 | 0.00 | 76 | 1020.0 |
| 20260508181008 | 53 | 32 | 7.0 | 11.0 | 0.00 | 0.00 | 0.00 | 75 | 1019.6 |
| 20260508180507 | 53 | 11 | 8.0 | 9.0 | 0.00 | 0.00 | 0.00 | 74 | 1019.6 |
| 20260508175507 | 54 | 38 | 5.0 | 8.0 | 0.00 | 0.00 | 0.00 | 74 | 1019.4 |
| 20260508175007 | 54 | 5 | 4.0 | 8.0 | 0.00 | 0.00 | 0.00 | 74 | 1019.4 |
| 20260508174508 | 54 | 45 | 7.0 | 11.0 | 0.00 | 0.00 | 0.00 | 73 | 1019.6 |
| 20260508174007 | 54 | 52 | 12.0 | 14.0 | 0.00 | 0.00 | 0.00 | 73 | 1019.6 |
| 20260508173507 | 54 | 10 | 6.0 | 8.0 | 0.00 | 0.00 | 0.00 | 73 | 1019.6 |
| 20260508173008 | 55 | 0 | 6.0 | 7.0 | 0.00 | 0.00 | 0.00 | 72 | 1019.6 |
| 20260508172508 | 55 | 10 | 4.0 | 5.0 | 0.00 | 0.00 | 0.00 | 72 | 1019.5 |
| 20260508172007 | 55 | 357 | 6.0 | 7.0 | 0.00 | 0.00 | 0.00 | 70 | 1019.4 |
| 20260508171509 | 55 | 347 | 7.0 | 9.0 | 0.00 | 0.00 | 0.00 | 70 | 1019.3 |
| 20260508171006 | 55 | 0 | 10.0 | 12.0 | 0.00 | 0.00 | 0.00 | 69 | 1019.4 |
| 20260508170507 | 55 | 8 | 7.0 | 9.0 | 0.00 | 0.00 | 0.00 | 69 | 1019.0 |
| 20260508170008 | 55 | 4 | 12.0 | 13.0 | 0.00 | 0.00 | 0.00 | 69 | 1019.1 |
| 20260508165507 | 55 | 18 | 6.0 | 13.0 | 0.00 | 0.00 | 0.00 | 69 | 1019.4 |
| 20260508165008 | 55 | 359 | 9.0 | 11.0 | 0.00 | 0.00 | 0.00 | 69 | 1019.2 |
| 20260508164510 | 0 | 0 | 0.0 | 0.0 | 0.00 | 0.00 | 0.00 | 100 | |
| 20260508164008 | 55 | 349 | 11.0 | 11.0 | 0.00 | 0.00 | 0.00 | 69 | 1019.4 |
| 20260508163508 | 55 | 0 | 11.0 | 13.0 | 0.00 | 0.00 | 0.00 | 68 | 1019.5 |
| 20260508163008 | 55 | 355 | 13.0 | 17.0 | 0.00 | 0.00 | 0.00 | 69 | 1019.6 |
| 20260508162507 | 55 | 355 | 17.0 | 19.0 | 0.00 | 0.00 | 0.00 | 69 | 1019.6 |
| 20260508162007 | 56 | 180 | 13.0 | 15.0 | 0.00 | 0.00 | 0.00 | 68 | 1019.8 |
| 20260508161508 | 56 | 151 | 10.0 | 12.0 | 0.00 | 0.00 | 0.00 | 67 | 1019.5 |
| 20260508161008 | 56 | 1 | 10.0 | 13.0 | 0.00 | 0.00 | 0.00 | 67 | 1019.3 |
| 20260508160508 | 56 | 23 | 4.0 | 5.0 | 0.00 | 0.00 | 0.00 | 68 | 1019.4 |
| 20260508160008 | 57 | 92 | 6.0 | 7.0 | 0.00 | 0.00 | 0.00 | 69 | 1019.5 |
| 20260508155507 | 30 | 0 | 0.0 | 0.0 | 0.00 | 0.00 | 0.00 | 100 | 1019.4 |
| 20260508155007 | 57 | 43 | 9.0 | 11.0 | 0.00 | 0.00 | 0.00 | 66 | 1019.6 |
| 20260508154507 | 57 | 43 | 9.0 | 11.0 | 0.00 | 0.00 | 0.00 | 66 | 1019.4 |
| 20260508154007 | 56 | 40 | 7.0 | 8.0 | 0.00 | 0.00 | 0.00 | 68 | 1019.5 |
| 20260508153508 | 56 | 36 | 14.0 | 14.0 | 0.00 | 0.00 | 0.00 | 67 | 1019.7 |
| 20260508153008 | 55 | 4 | 8.0 | 9.0 | 0.00 | 0.00 | 0.00 | 69 | 1019.7 |
| 20260508152507 | 55 | 28 | 9.0 | 10.0 | 0.00 | 0.00 | 0.00 | 70 | 1019.5 |
| 20260508152007 | 55 | 77 | 7.0 | 9.0 | 0.00 | 0.00 | 0.00 | 70 | 1019.7 |
| 20260508151507 | 55 | 65 | 12.0 | 14.0 | 0.00 | 0.00 | 0.00 | 70 | 1019.8 |
| 20260508151007 | 56 | 30 | 10.0 | 14.0 | 0.00 | 0.00 | 0.00 | 70 | 1019.5 |
| 20260508150508 | 55 | 52 | 7.0 | 9.0 | 0.00 | 0.00 | 0.00 | 69 | 1019.7 |
| 20260508150007 | 56 | 53 | 4.0 | 6.0 | 0.00 | 0.00 | 0.00 | 70 | 1019.9 |
| 20260508145508 | 55 | 54 | 6.0 | 7.0 | 0.00 | 0.00 | 0.00 | 71 | 1019.6 |
| 20260508145009 | 55 | 6 | 10.0 | 13.0 | 0.00 | 0.00 | 0.00 | 70 | 1019.7 |
| 20260508144507 | 56 | 11 | 12.0 | 13.0 | 0.00 | 0.00 | 0.00 | 69 | 1019.8 |
| 20260508144008 | 55 | 1 | 12.0 | 12.0 | 0.00 | 0.00 | 0.00 | 70 | 1020.0 |
| 20260508143507 | 54 | 16 | 12.0 | 13.0 | 0.00 | 0.00 | 0.00 | 71 | 1019.9 |
| 20260508143007 | 55 | 325 | 10.0 | 11.0 | 0.00 | 0.00 | 0.00 | 69 | 1019.9 |
| 20260508142508 | 56 | 94 | 11.0 | 11.0 | 0.00 | 0.00 | 0.00 | 71 | 1019.9 |
| 20260508142007 | 55 | 94 | 11.0 | 11.0 | 0.00 | 0.00 | 0.00 | 71 | 1020.0 |
| 20260508141508 | 55 | 94 | 11.0 | 11.0 | 0.00 | 0.00 | 0.00 | 72 | 1020.0 |
| 20260508140508 | 55 | 94 | 11.0 | 11.0 | 0.00 | 0.00 | 0.00 | 71 | 1019.8 |
| 20260508140008 | 55 | 94 | 11.0 | 11.0 | 0.00 | 0.00 | 0.00 | 72 | 1020.0 |
| 20260508135507 | 54 | 94 | 11.0 | 11.0 | 0.00 | 0.00 | 0.00 | 70 | 1019.8 |
| 20260508135007 | 54 | 94 | 11.0 | 11.0 | 0.00 | 0.00 | 0.00 | 71 | 1019.9 |
| 20260508134508 | 54 | 94 | 11.0 | 11.0 | 0.00 | 0.00 | 0.00 | 71 | 1020.0 |
| 20260508134007 | 54 | 94 | 11.0 | 11.0 | 0.00 | 0.00 | 0.00 | 71 | 1019.9 |
| 20260508133507 | 55 | 94 | 11.0 | 11.0 | 0.00 | 0.00 | 0.00 | 71 | 1020.0 |
| 20260508133008 | 54 | 94 | 11.0 | 11.0 | 0.00 | 0.00 | 0.00 | 72 | 1020.1 |
| 20260508132508 | 55 | 94 | 11.0 | 11.0 | 0.00 | 0.00 | 0.00 | 72 | 1019.9 |
| 20260508132007 | 55 | 94 | 11.0 | 11.0 | 0.00 | 0.00 | 0.00 | 70 | 1020.0 |
| 20260508131508 | 54 | 94 | 11.0 | 11.0 | 0.00 | 0.00 | 0.00 | 71 | 1020.1 |
| 20260508131008 | 54 | 94 | 11.0 | 11.0 | 0.00 | 0.00 | 0.00 | 74 | 1020.1 |
| 20260508130507 | 53 | 94 | 11.0 | 11.0 | 0.00 | 0.00 | 0.00 | 72 | 1020.2 |
| 20260508130007 | 54 | 94 | 11.0 | 11.0 | 0.00 | 0.00 | 0.00 | 72 | 1020.2 |
| 20260508125507 | 53 | 94 | 11.0 | 11.0 | 0.00 | 0.00 | 0.00 | 73 | 1020.3 |
| 20260508125008 | 53 | 94 | 11.0 | 11.0 | 0.00 | 0.00 | 0.00 | 74 | 1020.3 |
| 20260508124508 | 53 | 94 | 11.0 | 11.0 | 0.00 | 0.00 | 0.00 | 74 | 1020.2 |
| 20260508124007 | 53 | 94 | 11.0 | 11.0 | 0.00 | 0.00 | 0.00 | 73 | 1019.9 |
| 20260508123508 | 54 | 94 | 11.0 | 11.0 | 0.00 | 0.00 | 0.00 | 73 | 1020.1 |
| 20260508123008 | 54 | 94 | 11.0 | 11.0 | 0.00 | 0.00 | 0.00 | 73 | 1020.0 |
| 20260508122507 | 55 | 94 | 11.0 | 11.0 | 0.00 | 0.00 | 0.00 | 72 | 1020.0 |
| 20260508122008 | 54 | 94 | 11.0 | 11.0 | 0.00 | 0.00 | 0.00 | 73 | 1019.9 |
| 20260508121006 | 55 | 94 | 11.0 | 11.0 | 0.00 | 0.00 | 0.00 | 71 | 1019.9 |
| 20260508120508 | 54 | 94 | 11.0 | 11.0 | 0.00 | 0.00 | 0.00 | 72 | 1019.8 |
| 20260508120008 | 54 | 94 | 11.0 | 11.0 | 0.00 | 0.00 | 0.00 | 72 | 1020.0 |
| 20260508115508 | 53 | 94 | 11.0 | 11.0 | 0.00 | 0.00 | 0.00 | 73 | 1020.1 |
| 20260508115007 | 54 | 94 | 11.0 | 11.0 | 0.00 | 0.00 | 0.00 | 74 | 1020.1 |
| 20260508114508 | 53 | 94 | 11.0 | 11.0 | 0.00 | 0.00 | 0.00 | 72 | 1020.0 |
| 20260508114007 | 54 | 94 | 11.0 | 11.0 | 0.00 | 0.00 | 0.00 | 73 | 1020.0 |
| 20260508113508 | 54 | 94 | 11.0 | 11.0 | 0.00 | 0.00 | 0.00 | 72 | 1020.0 |
| 20260508113008 | 53 | 94 | 11.0 | 11.0 | 0.00 | 0.00 | 0.00 | 73 | 1019.9 |
| 20260508112508 | 53 | 94 | 11.0 | 11.0 | 0.00 | 0.00 | 0.00 | 73 | 1020.0 |
| 20260508112007 | 52 | 94 | 11.0 | 11.0 | 0.00 | 0.00 | 0.00 | 75 | 1020.1 |
| 20260508111508 | 52 | 94 | 11.0 | 11.0 | 0.00 | 0.00 | 0.00 | 76 | 1020.2 |
| 20260508111007 | 52 | 94 | 11.0 | 11.0 | 0.00 | 0.00 | 0.00 | 75 | 1020.0 |
| 20260508110508 | 52 | 94 | 11.0 | 11.0 | 0.00 | 0.00 | 0.00 | 77 | 1019.9 |
| 20260508110007 | 52 | 94 | 11.0 | 11.0 | 0.00 | 0.00 | 0.00 | 77 | 1020.1 |
| 20260508105507 | 52 | 94 | 11.0 | 11.0 | 0.00 | 0.00 | 0.00 | 78 | 1020.2 |
| 20260508105007 | 52 | 94 | 11.0 | 11.0 | 0.00 | 0.00 | 0.00 | 77 | 1020.1 |
| 20260508104508 | 51 | 94 | 11.0 | 11.0 | 0.00 | 0.00 | 0.00 | 80 | 1020.2 |
| 20260508104008 | 51 | 94 | 11.0 | 11.0 | 0.00 | 0.00 | 0.00 | 79 | 1020.1 |
| 20260508103507 | 52 | 94 | 11.0 | 11.0 | 0.00 | 0.00 | 0.00 | 80 | 1020.1 |
| 20260508103007 | 51 | 94 | 11.0 | 11.0 | 0.00 | 0.00 | 0.00 | 79 | 1020.1 |
| 20260508102507 | 51 | 94 | 11.0 | 11.0 | 0.00 | 0.00 | 0.00 | 79 | 1020.1 |
| 20260508102007 | 51 | 94 | 11.0 | 11.0 | 0.00 | 0.00 | 0.00 | 80 | 1020.1 |
| 20260508101508 | 51 | 94 | 11.0 | 11.0 | 0.00 | 0.00 | 0.00 | 80 | 1020.2 |
| 20260508101006 | 51 | 94 | 11.0 | 11.0 | 0.00 | 0.00 | 0.00 | 80 | 1020.1 |
| 20260508100507 | 51 | 94 | 11.0 | 11.0 | 0.00 | 0.00 | 0.00 | 82 | 1020.0 |
| 20260508100008 | 51 | 94 | 11.0 | 11.0 | 0.00 | 0.00 | 0.00 | 83 | 1020.2 |
| 20260508095507 | 50 | 94 | 11.0 | 11.0 | 0.00 | 0.00 | 0.00 | 83 | 1020.2 |
| 20260508095008 | 50 | 94 | 11.0 | 11.0 | 0.00 | 0.00 | 0.00 | 83 | 1019.9 |
| 20260508094508 | 50 | 94 | 11.0 | 11.0 | 0.00 | 0.00 | 0.00 | 83 | 1020.2 |
| 20260508094008 | 50 | 94 | 11.0 | 11.0 | 0.00 | 0.00 | 0.00 | 84 | 1020.1 |
| 20260508093507 | 50 | 94 | 11.0 | 11.0 | 0.00 | 0.00 | 0.00 | 83 | 1020.0 |
| 20260508093007 | 50 | 94 | 11.0 | 11.0 | 0.00 | 0.00 | 0.00 | 83 | 1020.2 |
| 20260508092508 | 50 | 94 | 11.0 | 11.0 | 0.00 | 0.00 | 0.00 | 83 | 1020.0 |
| 20260508092007 | 50 | 94 | 11.0 | 11.0 | 0.00 | 0.00 | 0.00 | 83 | 1020.3 |
| 20260508091509 | 50 | 94 | 11.0 | 11.0 | 0.00 | 0.00 | 0.00 | 84 | 1020.2 |
| 20260508091008 | 50 | 94 | 11.0 | 11.0 | 0.00 | 0.00 | 0.00 | 84 | 1020.2 |
| 20260508090007 | 49 | 94 | 11.0 | 11.0 | 0.00 | 0.00 | 0.00 | 86 | 1020.1 |
| 20260508085507 | 50 | 94 | 11.0 | 11.0 | 0.00 | 0.00 | 0.00 | 86 | 1020.1 |
| 20260508085007 | 49 | 94 | 11.0 | 11.0 | 0.00 | 0.00 | 0.00 | 85 | 1019.9 |
| 20260508084507 | 49 | 94 | 11.0 | 11.0 | 0.00 | 0.00 | 0.00 | 86 | 1020.1 |
| 20260508084007 | 49 | 94 | 11.0 | 11.0 | 0.00 | 0.00 | 0.00 | 85 | 1020.0 |
| 20260508083508 | 50 | 94 | 11.0 | 11.0 | 0.00 | 0.00 | 0.00 | 85 | 1020.0 |
| 20260508083007 | 49 | 94 | 11.0 | 11.0 | 0.00 | 0.00 | 0.00 | 86 | 1019.9 |
| 20260508082508 | 49 | 94 | 11.0 | 11.0 | 0.00 | 0.00 | 0.00 | 86 | 1019.8 |
| 20260508082007 | 48 | 94 | 11.0 | 11.0 | 0.00 | 0.00 | 0.00 | 87 | 1019.8 |
| 20260508081508 | 48 | 94 | 11.0 | 11.0 | 0.00 | 0.00 | 0.00 | 88 | 1019.8 |
| 20260508081007 | 48 | 94 | 11.0 | 11.0 | 0.00 | 0.00 | 0.00 | 87 | 1019.8 |
| 20260508080508 | 48 | 94 | 11.0 | 11.0 | 0.00 | 0.00 | 0.00 | 88 | 1019.8 |
| 20260508080007 | 48 | 94 | 11.0 | 11.0 | 0.00 | 0.00 | 0.00 | 88 | 1019.9 |
| 20260508075507 | 48 | 94 | 11.0 | 11.0 | 0.00 | 0.00 | 0.00 | 87 | 1019.9 |
| 20260508075008 | 48 | 94 | 11.0 | 11.0 | 0.00 | 0.00 | 0.00 | 87 | 1019.8 |
| 20260508074507 | 48 | 94 | 11.0 | 11.0 | 0.00 | 0.00 | 0.00 | 88 | 1019.9 |
| 20260508074008 | 48 | 94 | 11.0 | 11.0 | 0.00 | 0.00 | 0.00 | 88 | 1019.8 |
| 20260508073508 | 47 | 94 | 11.0 | 11.0 | 0.00 | 0.00 | 0.00 | 89 | 1019.6 |
| 20260508073007 | 47 | 94 | 11.0 | 11.0 | 0.00 | 0.00 | 0.00 | 89 | 1019.8 |
| 20260508072507 | 47 | 94 | 11.0 | 11.0 | 0.00 | 0.00 | 0.00 | 89 | 1019.8 |
| 20260508072008 | 47 | 94 | 11.0 | 11.0 | 0.00 | 0.00 | 0.00 | 90 | 1019.7 |
| 20260508071506 | 47 | 94 | 11.0 | 11.0 | 0.00 | 0.00 | 0.00 | 89 | 1019.5 |
| 20260508071006 | 46 | 94 | 11.0 | 11.0 | 0.00 | 0.00 | 0.00 | 90 | 1019.7 |
| 20260508070508 | 46 | 94 | 11.0 | 11.0 | 0.00 | 0.00 | 0.00 | 90 | 1019.4 |
| 20260508070007 | 46 | 94 | 11.0 | 11.0 | 0.00 | 0.00 | 0.00 | 91 | 1019.3 |
| 20260508065508 | 47 | 94 | 11.0 | 11.0 | 0.00 | 0.00 | 0.00 | 90 | 1019.3 |
| 20260508065007 | 46 | 94 | 11.0 | 11.0 | 0.00 | 0.00 | 0.00 | 90 | 1019.2 |
| 20260508064507 | 46 | 94 | 11.0 | 11.0 | 0.00 | 0.00 | 0.00 | 90 | 1019.2 |
| 20260508064007 | 46 | 94 | 11.0 | 11.0 | 0.00 | 0.00 | 0.00 | 91 | 1019.2 |
| 20260508063508 | 46 | 94 | 11.0 | 11.0 | 0.00 | 0.00 | 0.00 | 92 | 1018.9 |
| 20260508063010 | 46 | 94 | 11.0 | 11.0 | 0.00 | 0.00 | 0.00 | 91 | 1018.9 |
| 20260508062508 | 46 | 94 | 11.0 | 11.0 | 0.00 | 0.00 | 0.00 | 91 | 1019.0 |
| 20260508062007 | 46 | 94 | 11.0 | 11.0 | 0.00 | 0.00 | 0.00 | 92 | 1019.0 |
| 20260508061508 | 46 | 94 | 11.0 | 11.0 | 0.00 | 0.00 | 0.00 | 91 | 1018.9 |
| 20260508061007 | 46 | 94 | 11.0 | 11.0 | 0.00 | 0.00 | 0.00 | 91 | 1018.9 |
| 20260508060508 | 46 | 94 | 11.0 | 11.0 | 0.00 | 0.00 | 0.00 | 91 | 1018.8 |
| 20260508060008 | 46 | 94 | 11.0 | 11.0 | 0.00 | 0.00 | 0.00 | 92 | 1018.7 |
| 20260508055508 | 46 | 94 | 11.0 | 11.0 | 0.00 | 0.00 | 0.00 | 92 | 1018.9 |
| 20260508055007 | 46 | 94 | 11.0 | 11.0 | 0.00 | 0.00 | 0.00 | 93 | 1018.7 |
| 20260508054507 | 46 | 94 | 11.0 | 11.0 | 0.00 | 0.00 | 0.00 | 93 | 1018.7 |
| 20260508054007 | 46 | 94 | 11.0 | 11.0 | 0.00 | 0.00 | 0.00 | 94 | 1018.4 |
| 20260508053508 | 46 | 94 | 11.0 | 11.0 | 0.00 | 0.00 | 0.00 | 95 | 1018.6 |
| 20260508053008 | 46 | 94 | 11.0 | 11.0 | 0.00 | 0.00 | 0.00 | 96 | 1018.4 |
| 20260508052509 | 45 | 94 | 11.0 | 11.0 | 0.00 | 0.00 | 0.00 | 96 | 1018.6 |
| 20260508052007 | 45 | 94 | 11.0 | 11.0 | 0.00 | 0.00 | 0.00 | 96 | 1018.2 |
| 20260508051508 | 45 | 94 | 11.0 | 11.0 | 0.00 | 0.00 | 0.00 | 96 | 1018.5 |
| 20260508051007 | 45 | 94 | 11.0 | 11.0 | 0.00 | 0.00 | 0.00 | 96 | 1018.4 |
| 20260508050507 | 45 | 94 | 11.0 | 11.0 | 0.00 | 0.00 | 0.00 | 96 | 1018.4 |
| 20260508050008 | 45 | 94 | 11.0 | 11.0 | 0.00 | 0.00 | 0.00 | 96 | 1018.4 |
| 20260508045507 | 45 | 94 | 11.0 | 11.0 | 0.00 | 0.00 | 0.00 | 96 | 1018.1 |
| 20260508045007 | 45 | 94 | 11.0 | 11.0 | 0.00 | 0.00 | 0.00 | 96 | 1018.1 |
| 20260508044507 | 45 | 94 | 11.0 | 11.0 | 0.00 | 0.00 | 0.00 | 96 | 1018.1 |
| 20260508044007 | 45 | 94 | 11.0 | 11.0 | 0.00 | 0.00 | 0.00 | 96 | 1018.1 |
| 20260508043007 | 45 | 94 | 11.0 | 11.0 | 0.00 | 0.00 | 0.00 | 96 | 1018.1 |
| 20260508042508 | 45 | 94 | 11.0 | 11.0 | 0.00 | 0.00 | 0.00 | 97 | 1018.0 |
| 20260508042008 | 45 | 94 | 11.0 | 11.0 | 0.00 | 0.00 | 0.00 | 97 | 1018.0 |
| 20260508041507 | 45 | 94 | 11.0 | 11.0 | 0.00 | 0.00 | 0.00 | 97 | 1018.1 |
| 20260508041007 | 45 | 94 | 11.0 | 11.0 | 0.00 | 0.00 | 0.00 | 97 | 1018.3 |
| 20260508040507 | 45 | 94 | 11.0 | 11.0 | 0.00 | 0.00 | 0.00 | 97 | 1017.9 |
| 20260508040008 | 45 | 94 | 11.0 | 11.0 | 0.00 | 0.00 | 0.00 | 97 | 1018.0 |
| 20260508035507 | 45 | 94 | 11.0 | 11.0 | 0.00 | 0.00 | 0.00 | 97 | 1018.0 |
| 20260508035008 | 45 | 94 | 11.0 | 11.0 | 0.00 | 0.00 | 0.00 | 96 | 1018.0 |
| 20260508034508 | 45 | 94 | 11.0 | 11.0 | 0.00 | 0.00 | 0.00 | 96 | 1017.9 |
| 20260508034007 | 45 | 94 | 11.0 | 11.0 | 0.00 | 0.00 | 0.00 | 96 | 1018.1 |
| 20260508033507 | 45 | 94 | 11.0 | 11.0 | 0.00 | 0.00 | 0.00 | 96 | 1018.0 |
| 20260508033008 | 45 | 94 | 11.0 | 11.0 | 0.00 | 0.00 | 0.00 | 96 | 1017.9 |
| 20260508032508 | 45 | 94 | 11.0 | 11.0 | 0.00 | 0.00 | 0.00 | 96 | 1017.8 |
| 20260508032007 | 45 | 94 | 11.0 | 11.0 | 0.00 | 0.00 | 0.00 | 96 | 1018.0 |
| 20260508031507 | 45 | 94 | 11.0 | 11.0 | 0.00 | 0.00 | 0.00 | 95 | 1017.9 |
| 20260508031007 | 45 | 94 | 11.0 | 11.0 | 0.00 | 0.00 | 0.00 | 95 | 1017.9 |
| 20260508030507 | 45 | 94 | 11.0 | 11.0 | 0.00 | 0.00 | 0.00 | 96 | 1017.6 |
| 20260508030007 | 45 | 94 | 11.0 | 11.0 | 0.00 | 0.00 | 0.00 | 96 | 1017.8 |
| 20260508025507 | 45 | 94 | 11.0 | 11.0 | 0.00 | 0.00 | 0.00 | 96 | 1017.7 |
| 20260508025009 | 45 | 94 | 11.0 | 11.0 | 0.00 | 0.00 | 0.00 | 96 | 1017.7 |
| 20260508024508 | 45 | 94 | 11.0 | 11.0 | 0.00 | 0.00 | 0.00 | 96 | 1017.7 |
| 20260508024007 | 45 | 94 | 11.0 | 11.0 | 0.00 | 0.00 | 0.00 | 96 | 1017.8 |
| 20260508023508 | 45 | 94 | 11.0 | 11.0 | 0.00 | 0.00 | 0.00 | 96 | 1017.7 |
| 20260508023009 | 46 | 94 | 11.0 | 11.0 | 0.00 | 0.00 | 0.00 | 96 | 1017.6 |
| 20260508022508 | 45 | 94 | 11.0 | 11.0 | 0.00 | 0.00 | 0.00 | 96 | 1017.9 |
| 20260508022007 | 45 | 94 | 11.0 | 11.0 | 0.00 | 0.00 | 0.00 | 96 | 1017.6 |
| 20260508021507 | 45 | 94 | 11.0 | 11.0 | 0.00 | 0.00 | 0.00 | 96 | 1017.9 |
| 20260508021007 | 45 | 94 | 11.0 | 11.0 | 0.00 | 0.00 | 0.00 | 96 | 1017.7 |
| 20260508020508 | 45 | 94 | 11.0 | 11.0 | 0.00 | 0.00 | 0.00 | 96 | 1017.8 |
| 20260508020008 | 45 | 94 | 11.0 | 11.0 | 0.00 | 0.00 | 0.00 | 95 | 1017.8 |
| 20260508015508 | 46 | 94 | 11.0 | 11.0 | 0.00 | 0.00 | 0.00 | 95 | 1017.6 |
| 20260508015008 | 45 | 94 | 11.0 | 11.0 | 0.00 | 0.00 | 0.00 | 95 | 1017.6 |
| 20260508014507 | 45 | 94 | 11.0 | 11.0 | 0.00 | 0.00 | 0.00 | 96 | 1017.7 |
| 20260508014008 | 45 | 94 | 11.0 | 11.0 | 0.00 | 0.00 | 0.00 | 96 | 1017.8 |
| 20260508013508 | 45 | 94 | 11.0 | 11.0 | 0.00 | 0.00 | 0.00 | 97 | 1017.6 |
| 20260508013007 | 46 | 94 | 11.0 | 11.0 | 0.00 | 0.00 | 0.00 | 97 | 1017.8 |
| 20260508012508 | 46 | 94 | 11.0 | 11.0 | 0.00 | 0.00 | 0.00 | 97 | 1017.7 |
| 20260508012007 | 46 | 94 | 11.0 | 11.0 | 0.00 | 0.00 | 0.00 | 97 | 1017.7 |
| 20260508011507 | 46 | 94 | 11.0 | 11.0 | 0.00 | 0.00 | 0.00 | 96 | 1017.6 |
| 20260508011009 | 46 | 94 | 11.0 | 11.0 | 0.00 | 0.00 | 0.00 | 96 | 1017.6 |
| 20260508010507 | 46 | 94 | 11.0 | 11.0 | 0.00 | 0.00 | 0.00 | 97 | 1017.7 |
| 20260508010007 | 46 | 94 | 11.0 | 11.0 | 0.00 | 0.00 | 0.00 | 97 | 1017.6 |
| 20260508005507 | 46 | 94 | 11.0 | 11.0 | 0.00 | 0.00 | 0.00 | 97 | 1017.5 |
| 20260508005008 | 46 | 94 | 11.0 | 11.0 | 0.00 | 0.00 | 0.00 | 97 | 1017.4 |
| 20260508004508 | 46 | 94 | 11.0 | 11.0 | 0.00 | 0.00 | 0.00 | 97 | 1017.5 |
| 20260508004008 | 46 | 94 | 11.0 | 11.0 | 0.00 | 0.00 | 0.00 | 96 | 1017.4 |
| 20260508003507 | 46 | 94 | 11.0 | 11.0 | 0.00 | 0.00 | 0.00 | 96 | 1017.5 |
| 20260508003007 | 46 | 94 | 11.0 | 11.0 | 0.00 | 0.00 | 0.00 | 96 | 1017.5 |
| 20260508002507 | 46 | 94 | 11.0 | 11.0 | 0.00 | 0.00 | 0.00 | 97 | 1017.5 |
| 20260508002007 | 46 | 94 | 11.0 | 11.0 | 0.00 | 0.00 | 0.00 | 97 | 1017.5 |
| 20260508001507 | 46 | 94 | 11.0 | 11.0 | 0.00 | 0.00 | 0.00 | 96 | 1017.6 |
| 20260508001007 | 46 | 94 | 11.0 | 11.0 | 0.00 | 0.00 | 0.00 | 96 | 1017.7 |
| 20260508000508 | 46 | 94 | 11.0 | 11.0 | 0.00 | 0.00 | 0.00 | 96 | 1017.7 |
| 20260508000007 | 47 | 94 | 11.0 | 11.0 | 0.00 | 0.00 | 0.00 | 95 | 1017.7 |
| 20260507235508 | 46 | 94 | 11.0 | 11.0 | 0.00 | 0.00 | 0.00 | 95 | 1017.8 |
| 20260507235008 | 46 | 94 | 11.0 | 11.0 | 0.00 | 0.00 | 0.00 | 95 | 1017.5 |
| 20260507234507 | 47 | 94 | 11.0 | 11.0 | 0.00 | 0.00 | 0.00 | 95 | 1017.6 |
| 20260507234008 | 47 | 94 | 11.0 | 11.0 | 0.00 | 0.00 | 0.00 | 95 | 1017.6 |
| 20260507233508 | 47 | 94 | 11.0 | 11.0 | 0.00 | 0.00 | 0.00 | 95 | 1017.7 |
| 20260507233007 | 47 | 94 | 11.0 | 11.0 | 0.00 | 0.00 | 0.00 | 95 | 1017.8 |
| 20260507232508 | 47 | 94 | 11.0 | 11.0 | 0.00 | 0.00 | 0.00 | 94 | 1017.8 |
| 20260507232007 | 47 | 94 | 11.0 | 11.0 | 0.00 | 0.00 | 0.00 | 95 | 1017.7 |
| 20260507231507 | 47 | 94 | 11.0 | 11.0 | 0.00 | 0.00 | 0.00 | 95 | 1017.8 |
| 20260507231008 | 47 | 94 | 11.0 | 11.0 | 0.00 | 0.00 | 0.00 | 95 | 1017.8 |
| 20260507230507 | 47 | 94 | 11.0 | 11.0 | 0.00 | 0.00 | 0.00 | 95 | 1017.8 |
| 20260507230008 | 47 | 94 | 11.0 | 11.0 | 0.00 | 0.00 | 0.00 | 95 | 1017.8 |
| 20260507225507 | 47 | 94 | 11.0 | 11.0 | 0.00 | 0.00 | 0.00 | 95 | 1017.7 |
| 20260507225008 | 47 | 94 | 11.0 | 11.0 | 0.00 | 0.00 | 0.00 | 94 | 1017.7 |
| 20260507224507 | 47 | 94 | 11.0 | 11.0 | 0.00 | 0.00 | 0.00 | 94 | 1017.8 |
| 20260507224008 | 47 | 94 | 11.0 | 11.0 | 0.00 | 0.00 | 0.00 | 95 | 1017.6 |
| 20260507223508 | 47 | 94 | 11.0 | 11.0 | 0.00 | 0.00 | 0.00 | 95 | 1017.6 |
| 20260507223008 | 47 | 94 | 11.0 | 11.0 | 0.00 | 0.00 | 0.00 | 95 | 1017.7 |
| 20260507222507 | 47 | 94 | 11.0 | 11.0 | 0.00 | 0.00 | 0.00 | 95 | 1017.7 |
| 20260507222007 | 47 | 94 | 11.0 | 11.0 | 0.00 | 0.00 | 0.00 | 96 | 1017.6 |
| 20260507221507 | 47 | 94 | 11.0 | 11.0 | 0.00 | 0.00 | 0.00 | 95 | 1017.6 |
| 20260507221007 | 47 | 94 | 11.0 | 11.0 | 0.00 | 0.00 | 0.00 | 96 | 1017.8 |
| 20260507220009 | 47 | 94 | 11.0 | 11.0 | 0.00 | 0.00 | 0.00 | 97 | 1017.8 |
| 20260507215507 | 47 | 94 | 11.0 | 11.0 | 0.00 | 0.00 | 0.00 | 97 | 1017.8 |
| 20260507215008 | 47 | 94 | 11.0 | 11.0 | 0.00 | 0.00 | 0.00 | 97 | 1017.6 |
| 20260507214508 | 47 | 94 | 11.0 | 11.0 | 0.00 | 0.00 | 0.00 | 97 | 1017.6 |
| 20260507214007 | 47 | 94 | 11.0 | 11.0 | 0.00 | 0.00 | 0.00 | 98 | 1017.6 |
| 20260507213507 | 47 | 94 | 11.0 | 11.0 | 0.00 | 0.00 | 0.00 | 98 | 1017.7 |
| 20260507213008 | 47 | 94 | 11.0 | 11.0 | 0.00 | 0.00 | 0.00 | 98 | 1017.4 |
| 20260507212509 | 47 | 94 | 11.0 | 11.0 | 0.00 | 0.00 | 0.00 | 98 | 1017.5 |
| 20260507212008 | 47 | 94 | 11.0 | 11.0 | 0.00 | 0.00 | 0.00 | 98 | 1017.4 |